Hafnia Lotte — 9HA4201 — position and weather

sailwx.info

Track history (hours):
 
Tides and Currents Weather Stations Pressure Air Temp Water Temp Dewpoint Dewpoint Depression Visibility Wind Speed Wind Dir Waves Ship Positions

Hafnia Lotte

Last reported at 2018-Feb-22 15:56 UTC. Time now 2018-Feb-23 06:27 UTC.
Position N 38°00' W 012°03'.

Length 183 m; draft 11.7 m.

Type: Tanker. MMSI: 249329000.

Date/timePositionNaut miles runAvg speedWind from/ knotsBaromVisibWave heightAir tempDewpointWater temp
2018-Feb-22 15:56N 38°00' W 012°03'  
2018-Feb-20 10:21N 48°18' W 006°18'6611.0
2018-Feb-20 04:18N 49°08' W 005°12'5 8.7
2018-Feb-20 03:46N 49°11' W 005°06'4 9.3
2018-Feb-20 03:23N 49°13' W 005°01'4 9.6
2018-Feb-20 02:59N 49°15' W 004°56'611.5
2018-Feb-20 02:30N 49°18' W 004°48'713.5
2018-Feb-20 01:59N 49°21' W 004°39'713.5
2018-Feb-20 01:30N 49°24' W 004°31'1613.7
2018-Feb-20 00:21N 49°32' W 004°10'713.4
2018-Feb-19 23:49N 49°36' W 004°00'1912.3
2018-Feb-19 22:16N 49°46' W 003°35'511.3
2018-Feb-19 21:48N 49°48' W 003°28'311.0
2018-Feb-19 21:30N 49°50' W 003°23'511.0
2018-Feb-19 21:00N 49°53' W 003°16'610.8
2018-Feb-19 20:29N 49°56' W 003°09'511.0
2018-Feb-19 20:00N 49°58' W 003°01'611.2
2018-Feb-19 19:30N 50°00' W 002°53'611.7
2018-Feb-19 19:00N 50°01' W 002°44'712.5
2018-Feb-19 18:29N 50°03' W 002°34'1213.8
2018-Feb-19 17:38N 50°06' W 002°17'314.9
2018-Feb-19 17:24N 50°07' W 002°12'615.6
2018-Feb-19 17:00N 50°09' W 002°02'816.1
2018-Feb-19 16:30N 50°11' W 001°50'816.2
2018-Feb-19 16:01N 50°13' W 001°38'816.0
2018-Feb-19 15:31N 50°15' W 001°26'1115.5
2018-Feb-19 14:49N 50°18' W 001°10'2812.9
2018-Feb-19 12:40N 50°24' W 000°28'211.3
2018-Feb-19 12:29N 50°25' W 000°25'611.1
2018-Feb-19 11:58N 50°26' W 000°16'510.6
2018-Feb-19 11:30N 50°28' W 000°08'510.3
2018-Feb-19 11:00N 50°29' W 000°01'510.3
2018-Feb-19 10:29N 50°31' E 000°07'510.5
2018-Feb-19 10:00N 50°32' E 000°15'511.0
2018-Feb-19 09:30N 50°34' E 000°23'611.9
2018-Feb-19 09:00N 50°36' E 000°32'612.4
2018-Feb-19 08:30N 50°39' E 000°40'713.3
2018-Feb-19 08:00N 50°43' E 000°49'713.8
2018-Feb-19 07:30N 50°47' E 000°58'713.8
2018-Feb-19 07:00N 50°51' E 001°06'713.5
2018-Feb-19 06:30N 50°56' E 001°14'713.0
2018-Feb-19 06:00N 51°01' E 001°21'612.3
2018-Feb-19 05:31N 51°05' E 001°28'611.3
2018-Feb-19 05:00N 51°08' E 001°36'510.7
2018-Feb-19 04:31N 51°12' E 001°42'510.3
2018-Feb-19 04:00N 51°15' E 001°48'510.2
2018-Feb-19 03:30N 51°20' E 001°52'510.1
2018-Feb-19 03:00N 51°24' E 001°57'5 9.9
2018-Feb-19 02:30N 51°24' E 002°04'612.1
2018-Feb-19 02:00N 51°22' E 002°13'510.7
2018-Feb-19 01:30N 51°21' E 002°22'611.3
2018-Feb-19 00:56N 51°23' E 002°32'511.5
2018-Feb-19 00:30N 51°23' E 002°40'510.2
2018-Feb-19 00:00N 51°25' E 002°47'611.7
2018-Feb-18 23:30N 51°25' E 002°57'612.2
2018-Feb-18 23:00N 51°24' E 003°06'612.1
2018-Feb-18 22:31N 51°25' E 003°16'611.9
2018-Feb-18 22:00N 51°25' E 003°26'612.0
2018-Feb-18 21:30N 51°26' E 003°35'5 9.6
2018-Feb-18 21:01N 51°25' E 003°43'612.0
2018-Feb-18 20:30N 51°21' E 003°50'611.9
2018-Feb-18 20:00N 51°24' E 003°57'3 6.4
2018-Feb-18 19:30N 51°24' E 004°02'510.6
2018-Feb-18 19:00N 51°24' E 004°11'5 9.4
2018-Feb-18 18:31N 51°21' E 004°17'0 0.9
2018-Feb-18 18:00N 51°21' E 004°17'0 0.0
2018-Feb-18 17:30N 51°21' E 004°17'0 0.0
2018-Feb-18 17:01N 51°21' E 004°17'1 1.0
2018-Feb-18 16:30N 51°20' E 004°18'3 6.5
2018-Feb-18 16:00N 51°18' E 004°20'1 1.7
2018-Feb-18 15:20N 51°16' E 004°21'0 0.0
2018-Feb-18 14:59N 51°16' E 004°21'0 0.0
2018-Feb-18 14:26N 51°16' E 004°21'0 0.0
2018-Feb-18 13:53N 51°16' E 004°21'0 0.0
2018-Feb-18 13:23N 51°16' E 004°21'0 0.0
2018-Feb-18 12:56N 51°16' E 004°21'0 0.0
2018-Feb-18 12:26N 51°16' E 004°21'0 0.0
2018-Feb-18 11:56N 51°16' E 004°21'0 0.0
2018-Feb-18 11:26N 51°16' E 004°21'0 0.0
2018-Feb-18 10:59N 51°16' E 004°21'0 0.0
2018-Feb-18 10:26N 51°16' E 004°21'0 0.0
2018-Feb-18 09:59N 51°16' E 004°21'0 0.0
2018-Feb-18 09:30N 51°16' E 004°21'0 0.0
2018-Feb-18 08:57N 51°16' E 004°21'0 0.0
2018-Feb-18 08:30N 51°16' E 004°21'0 0.0
2018-Feb-18 08:00N 51°16' E 004°21'0 0.0
2018-Feb-18 07:30N 51°16' E 004°21'0 0.0
2018-Feb-18 07:00N 51°16' E 004°21'0 0.0
2018-Feb-18 06:30N 51°16' E 004°21'0 0.0
2018-Feb-18 06:00N 51°16' E 004°21'0 0.0
2018-Feb-18 05:27N 51°16' E 004°21'0 0.0
2018-Feb-18 04:51N 51°16' E 004°21'0 0.0
2018-Feb-18 04:24N 51°16' E 004°21'0 0.0
2018-Feb-18 03:54N 51°16' E 004°21'0 0.0
2018-Feb-18 03:30N 51°16' E 004°21'0 0.0
2018-Feb-18 03:00N 51°16' E 004°21'0 0.0
2018-Feb-18 02:27N 51°16' E 004°21'0 0.0
2018-Feb-18 02:00N 51°16' E 004°21'0 0.0
2018-Feb-18 01:30N 51°16' E 004°21'0 0.0
2018-Feb-18 00:57N 51°16' E 004°21'0 0.0
2018-Feb-18 00:27N 51°16' E 004°21'0 0.0
2018-Feb-17 23:45N 51°16' E 004°21'0 0.0
2018-Feb-17 23:18N 51°16' E 004°21'0 0.0
2018-Feb-17 22:54N 51°16' E 004°21'0 0.0
2018-Feb-17 22:18N 51°16' E 004°21'0 0.0
2018-Feb-17 21:57N 51°16' E 004°21'0 0.0
2018-Feb-17 21:24N 51°16' E 004°21'0 0.0
2018-Feb-17 21:00N 51°16' E 004°21'0 0.0
2018-Feb-17 20:24N 51°16' E 004°21'0 0.0
2018-Feb-17 20:00N 51°16' E 004°21'0 0.0
2018-Feb-17 19:30N 51°16' E 004°21'0 0.0
2018-Feb-17 19:00N 51°16' E 004°21'0 0.0
2018-Feb-17 18:30N 51°16' E 004°21'0 0.0
2018-Feb-17 17:57N 51°16' E 004°21'0 0.0
2018-Feb-17 17:30N 51°16' E 004°21'0 0.0
2018-Feb-17 17:00N 51°16' E 004°21'0 0.0
2018-Feb-17 16:24N 51°16' E 004°21'0 0.0
2018-Feb-17 15:45N 51°16' E 004°21'0 0.0
2018-Feb-17 15:30N 51°16' E 004°21'0 0.0
2018-Feb-17 15:00N 51°16' E 004°21'0 0.0
2018-Feb-17 14:12N 51°16' E 004°21'0 0.0
2018-Feb-17 13:54N 51°16' E 004°21'0 0.0
2018-Feb-17 13:26N 51°16' E 004°21'0 0.0
2018-Feb-17 12:59N 51°16' E 004°21'0 0.0
2018-Feb-17 12:26N 51°16' E 004°21'0 0.0
2018-Feb-17 11:59N 51°16' E 004°21'0 0.0
2018-Feb-17 11:29N 51°16' E 004°21'0 0.0
2018-Feb-17 10:59N 51°16' E 004°21'0 0.0
2018-Feb-17 10:29N 51°16' E 004°21'0 0.0
2018-Feb-17 09:59N 51°16' E 004°21'0 0.0
2018-Feb-17 09:26N 51°16' E 004°21'0 0.0
2018-Feb-17 08:59N 51°16' E 004°21'0 0.0
2018-Feb-17 08:26N 51°16' E 004°21'0 0.0
2018-Feb-17 07:56N 51°16' E 004°21'0 0.0
2018-Feb-17 07:29N 51°16' E 004°21'0 0.0
2018-Feb-17 06:59N 51°16' E 004°21'0 0.0
2018-Feb-17 06:23N 51°16' E 004°21'0 0.0
2018-Feb-17 05:50N 51°16' E 004°21'0 0.0
2018-Feb-17 05:20N 51°16' E 004°21'0 0.0
2018-Feb-17 04:56N 51°16' E 004°21'0 0.0
2018-Feb-17 04:26N 51°16' E 004°21'0 0.0
2018-Feb-17 03:59N 51°16' E 004°21'0 0.0
2018-Feb-17 03:26N 51°16' E 004°21'0 0.0
2018-Feb-17 02:56N 51°16' E 004°21'0 0.0
2018-Feb-17 02:23N 51°16' E 004°21'0 0.0
2018-Feb-17 01:59N 51°16' E 004°21'0 0.0
2018-Feb-17 01:29N 51°16' E 004°21'0 0.0
2018-Feb-17 00:56N 51°16' E 004°21'0 0.0
2018-Feb-17 00:23N 51°16' E 004°21'0 0.0
2018-Feb-16 23:59N 51°16' E 004°21'0 0.0
2018-Feb-16 23:29N 51°16' E 004°21'0 0.0
2018-Feb-16 22:53N 51°16' E 004°21'0 0.0
2018-Feb-16 22:29N 51°16' E 004°21'0 0.0
2018-Feb-16 21:56N 51°16' E 004°21'0 0.0
2018-Feb-16 21:28N 51°16' E 004°21'0 0.0
2018-Feb-16 20:55N 51°16' E 004°21'0 0.0
2018-Feb-16 20:28N 51°16' E 004°21'0 0.0
2018-Feb-16 19:58N 51°16' E 004°21'0 0.0
2018-Feb-16 19:28N 51°16' E 004°21'0 0.0
2018-Feb-16 18:58N 51°16' E 004°21'0 0.0
2018-Feb-16 18:25N 51°16' E 004°21'0 0.0
2018-Feb-16 17:58N 51°16' E 004°21'0 0.0
2018-Feb-16 17:28N 51°16' E 004°21'0 0.0
2018-Feb-16 16:55N 51°16' E 004°21'0 0.0
2018-Feb-16 16:22N 51°16' E 004°21'0 0.0
2018-Feb-16 15:55N 51°16' E 004°21'0 0.0
2018-Feb-16 15:13N 51°16' E 004°21'0 0.0
2018-Feb-16 14:55N 51°16' E 004°21'0 0.0
2018-Feb-16 14:28N 51°16' E 004°21'0 0.0
2018-Feb-16 13:55N 51°16' E 004°21'0 0.0
2018-Feb-16 13:28N 51°16' E 004°21'0 0.0
2018-Feb-16 12:58N 51°16' E 004°21'0 0.0
2018-Feb-16 12:28N 51°16' E 004°21'0 0.0
2018-Feb-16 11:58N 51°16' E 004°21'0 0.0
2018-Feb-16 11:28N 51°16' E 004°21'0 0.0
2018-Feb-16 10:52N 51°16' E 004°21'0 0.0
2018-Feb-16 10:28N 51°16' E 004°21'0 0.0
2018-Feb-16 09:46N 51°16' E 004°21'0 0.0
2018-Feb-16 09:28N 51°16' E 004°21'0 0.0
2018-Feb-16 08:58N 51°16' E 004°21'0 0.0
2018-Feb-16 08:28N 51°16' E 004°21'0 0.0
2018-Feb-16 07:58N 51°16' E 004°21'0 0.0
2018-Feb-16 07:28N 51°16' E 004°21'0 0.0
2018-Feb-16 06:58N 51°16' E 004°21'0 0.0
2018-Feb-16 06:28N 51°16' E 004°21'0 0.0
2018-Feb-16 05:58N 51°16' E 004°21'0 0.0
2018-Feb-16 05:30N 51°16' E 004°21'0 0.0
2018-Feb-16 04:54N 51°16' E 004°21'0 0.0
2018-Feb-16 04:30N 51°16' E 004°21'0 0.0
2018-Feb-16 03:57N 51°16' E 004°21'0 0.0
2018-Feb-16 03:24N 51°16' E 004°21'0 0.0
2018-Feb-16 03:00N 51°16' E 004°21'0 0.0
2018-Feb-16 02:27N 51°16' E 004°21'0 0.0
2018-Feb-16 02:00N 51°16' E 004°21'0 0.0
2018-Feb-16 01:30N 51°16' E 004°21'0 0.0
2018-Feb-16 01:00N 51°16' E 004°21'0 0.0
2018-Feb-16 00:27N 51°16' E 004°21'0 0.0
2018-Feb-15 23:54N 51°16' E 004°21'0 0.0
2018-Feb-15 23:18N 51°16' E 004°21'0 0.0
2018-Feb-15 23:00N 51°16' E 004°21'0 0.0
2018-Feb-15 22:30N 51°16' E 004°21'0 0.0
2018-Feb-15 22:00N 51°16' E 004°21'0 0.0
2018-Feb-15 21:30N 51°16' E 004°21'0 0.0
2018-Feb-15 21:00N 51°16' E 004°21'0 0.0
2018-Feb-15 20:30N 51°16' E 004°21'0 0.0
2018-Feb-15 20:00N 51°16' E 004°21'0 0.0
2018-Feb-15 19:30N 51°16' E 004°21'0 0.0
2018-Feb-15 18:54N 51°16' E 004°21'0 0.0
2018-Feb-15 18:30N 51°16' E 004°21'0 0.0
2018-Feb-15 17:54N 51°16' E 004°21'0 0.0
2018-Feb-15 17:30N 51°16' E 004°21'0 0.0
2018-Feb-15 17:00N 51°16' E 004°21'0 0.0
2018-Feb-15 16:30N 51°16' E 004°21'0 0.0
2018-Feb-15 16:00N 51°16' E 004°21'0 0.0
2018-Feb-15 15:30N 51°16' E 004°21'0 0.0
2018-Feb-15 15:00N 51°16' E 004°21'0 0.0
2018-Feb-15 14:30N 51°16' E 004°21'0 0.0
2018-Feb-15 14:00N 51°16' E 004°21'0 0.0
2018-Feb-15 13:28N 51°16' E 004°21'0 0.0
2018-Feb-15 12:58N 51°16' E 004°21'0 0.0
2018-Feb-15 12:28N 51°16' E 004°21'0 0.0
2018-Feb-15 11:58N 51°16' E 004°21'0 0.0
2018-Feb-15 11:28N 51°16' E 004°21'0 0.0
2018-Feb-15 10:55N 51°16' E 004°21'0 0.0
2018-Feb-15 10:16N 51°16' E 004°21'0 0.0
2018-Feb-15 09:58N 51°16' E 004°21'0 0.0
2018-Feb-15 09:25N 51°16' E 004°21'0 0.0
2018-Feb-15 08:55N 51°16' E 004°21'0 0.0
2018-Feb-15 08:28N 51°16' E 004°21'0 0.0
2018-Feb-15 07:52N 51°16' E 004°21'0 0.0
2018-Feb-15 07:28N 51°16' E 004°21'0 0.0
2018-Feb-15 06:58N 51°16' E 004°21'0 0.0
2018-Feb-15 06:25N 51°16' E 004°21'0 0.0
2018-Feb-15 05:58N 51°16' E 004°21'0 0.0
2018-Feb-15 05:25N 51°16' E 004°21'0 0.0
2018-Feb-15 04:58N 51°16' E 004°21'0 0.0
2018-Feb-15 04:28N 51°16' E 004°21'0 0.0
2018-Feb-15 03:58N 51°16' E 004°21'0 0.0
2018-Feb-15 03:28N 51°16' E 004°21'0 0.0
2018-Feb-15 02:55N 51°16' E 004°21'0 0.0
2018-Feb-15 02:28N 51°16' E 004°21'0 0.0
2018-Feb-15 01:52N 51°16' E 004°21'0 0.0
2018-Feb-15 01:28N 51°16' E 004°21'0 0.0
2018-Feb-15 00:46N 51°16' E 004°21'0 0.0
2018-Feb-15 00:22N 51°16' E 004°21'0 0.0
2018-Feb-14 23:58N 51°16' E 004°21'0 0.0
2018-Feb-14 23:25N 51°16' E 004°21'0 0.0
2018-Feb-14 22:58N 51°16' E 004°21'0 0.0
2018-Feb-14 22:28N 51°16' E 004°21'0 0.0
2018-Feb-14 21:58N 51°16' E 004°21'0 0.0
2018-Feb-14 21:28N 51°16' E 004°21'0 0.0
2018-Feb-14 20:58N 51°16' E 004°21'0 0.0
2018-Feb-14 20:25N 51°16' E 004°21'0 0.0
2018-Feb-14 19:52N 51°16' E 004°21'0 0.0
2018-Feb-14 19:28N 51°16' E 004°21'0 0.0
2018-Feb-14 18:49N 51°16' E 004°21'0 0.0
2018-Feb-14 18:28N 51°16' E 004°21'0 0.0
2018-Feb-14 17:58N 51°16' E 004°21'0 0.0
2018-Feb-14 17:28N 51°16' E 004°21'0 0.0
2018-Feb-14 16:55N 51°16' E 004°21'0 0.0
2018-Feb-14 16:28N 51°16' E 004°21'0 0.0
2018-Feb-14 15:52N 51°16' E 004°21'0 0.0
2018-Feb-14 15:19N 51°16' E 004°21'0 0.0
2018-Feb-14 14:58N 51°16' E 004°21'0 0.0
2018-Feb-14 14:28N 51°16' E 004°21'0 0.0
2018-Feb-14 13:58N 51°16' E 004°21'0 0.0
2018-Feb-14 13:28N 51°16' E 004°21'0 0.0
2018-Feb-14 12:58N 51°16' E 004°21'0 0.0
2018-Feb-14 12:28N 51°16' E 004°21'0 0.0
2018-Feb-14 11:55N 51°16' E 004°21'0 0.0
2018-Feb-14 11:22N 51°16' E 004°21'0 0.0
2018-Feb-14 10:58N 51°16' E 004°21'0 0.0
2018-Feb-14 10:28N 51°16' E 004°21'0 0.0
2018-Feb-14 09:55N 51°16' E 004°21'0 0.0
2018-Feb-14 09:25N 51°16' E 004°21'0 0.0
2018-Feb-14 08:58N 51°16' E 004°21'0 0.0
2018-Feb-14 08:25N 51°16' E 004°21'0 0.0
2018-Feb-14 07:58N 51°16' E 004°21'0 0.0
2018-Feb-14 07:28N 51°16' E 004°21'0 0.0
2018-Feb-14 06:55N 51°16' E 004°21'0 0.0
2018-Feb-14 06:28N 51°16' E 004°21'0 0.0
2018-Feb-14 05:58N 51°16' E 004°21'0 0.0
2018-Feb-14 05:28N 51°16' E 004°21'0 0.0
2018-Feb-14 04:58N 51°16' E 004°21'0 0.0
2018-Feb-14 04:28N 51°16' E 004°21'0 0.0
2018-Feb-14 03:58N 51°16' E 004°21'0 0.0
2018-Feb-14 03:28N 51°16' E 004°21'0 0.0
2018-Feb-14 02:58N 51°16' E 004°21'0 0.0
2018-Feb-14 02:25N 51°16' E 004°21'0 0.0
2018-Feb-14 01:55N 51°16' E 004°21'0 0.0
2018-Feb-14 01:28N 51°16' E 004°21'0 0.0
2018-Feb-14 00:58N 51°16' E 004°21'0 0.0
2018-Feb-14 00:19N 51°16' E 004°21'0 0.0
2018-Feb-13 23:55N 51°16' E 004°21'0 0.0
2018-Feb-13 23:25N 51°16' E 004°21'0 0.0
2018-Feb-13 22:55N 51°16' E 004°21'0 0.0
2018-Feb-13 22:28N 51°16' E 004°21'0 0.0
2018-Feb-13 21:55N 51°16' E 004°21'0 0.0
2018-Feb-13 21:28N 51°16' E 004°21'0 0.0
2018-Feb-13 20:55N 51°16' E 004°21'0 0.0
2018-Feb-13 20:28N 51°16' E 004°21'0 0.0
2018-Feb-13 19:52N 51°16' E 004°21'0 0.0
2018-Feb-13 19:28N 51°16' E 004°21'0 0.0
2018-Feb-13 18:55N 51°16' E 004°21'0 0.0
2018-Feb-13 18:25N 51°16' E 004°21'0 0.0
2018-Feb-13 17:55N 51°16' E 004°21'0 0.0
2018-Feb-13 17:28N 51°16' E 004°21'0 0.0
2018-Feb-13 16:55N 51°16' E 004°21'0 0.0
2018-Feb-13 16:22N 51°16' E 004°21'0 0.0
2018-Feb-13 15:58N 51°16' E 004°21'0 0.0
2018-Feb-13 15:28N 51°16' E 004°21'0 0.0
2018-Feb-13 14:55N 51°16' E 004°21'0 0.0
2018-Feb-13 14:25N 51°16' E 004°21'0 0.0
2018-Feb-13 13:49N 51°16' E 004°21'0 0.0
2018-Feb-13 13:19N 51°16' E 004°21'0 0.0
2018-Feb-13 12:58N 51°16' E 004°21'0 0.0
2018-Feb-13 12:28N 51°16' E 004°21'0 0.0
2018-Feb-13 11:58N 51°16' E 004°21'0 0.0
2018-Feb-13 11:25N 51°16' E 004°21'0 0.0
2018-Feb-13 10:55N 51°16' E 004°21'0 0.0
2018-Feb-13 10:28N 51°16' E 004°21'0 0.0
2018-Feb-13 09:55N 51°16' E 004°21'0 0.0
2018-Feb-13 09:28N 51°16' E 004°21'0 0.0
2018-Feb-13 08:58N 51°16' E 004°21'0 0.0
2018-Feb-13 08:25N 51°16' E 004°21'0 0.0
2018-Feb-13 07:55N 51°16' E 004°21'0 0.0
2018-Feb-13 07:25N 51°16' E 004°21'0 0.0
2018-Feb-13 06:58N 51°16' E 004°21'0 0.0
2018-Feb-13 06:28N 51°16' E 004°21'0 0.0
2018-Feb-13 05:55N 51°16' E 004°21'0 0.0
2018-Feb-13 05:25N 51°16' E 004°21'0 0.0
2018-Feb-13 04:52N 51°16' E 004°21'0 0.0
2018-Feb-13 04:28N 51°16' E 004°21'0 0.0
2018-Feb-13 03:55N 51°16' E 004°21'0 0.0
2018-Feb-13 03:25N 51°16' E 004°21'0 0.0
2018-Feb-13 02:58N 51°16' E 004°21'0 0.0
2018-Feb-13 02:28N 51°16' E 004°21'0 0.0
2018-Feb-13 01:55N 51°16' E 004°21'0 0.0
2018-Feb-13 01:25N 51°16' E 004°21'0 0.0
2018-Feb-13 00:55N 51°16' E 004°21'0 0.0
2018-Feb-13 00:19N 51°16' E 004°21'0 0.0
2018-Feb-12 23:55N 51°16' E 004°21'0 0.0
2018-Feb-12 23:28N 51°16' E 004°21'0 0.0
2018-Feb-12 22:58N 51°16' E 004°21'0 0.1
2018-Feb-12 22:30N 51°16' E 004°21'2 3.9
2018-Feb-12 22:00N 51°18' E 004°19'3 5.7
2018-Feb-12 21:30N 51°21' E 004°17'0 0.0
2018-Feb-12 21:00N 51°21' E 004°17'0 0.0
2018-Feb-12 20:31N 51°21' E 004°17'1 1.2
2018-Feb-12 20:00N 51°21' E 004°16'3 6.8
2018-Feb-12 19:30N 51°23' E 004°13'510.1
2018-Feb-12 19:00N 51°22' E 004°05'510.4
2018-Feb-12 18:31N 51°26' E 003°59'611.6
2018-Feb-12 18:00N 51°21' E 003°54'510.7
2018-Feb-12 17:30N 51°22' E 003°45'510.5
2018-Feb-12 17:00N 51°26' E 003°40'5 8.8
2018-Feb-12 16:29N 51°25' E 003°33'510.5
2018-Feb-12 16:00N 51°24' E 003°25'  
Track history (hours):
 
Tides and Currents Weather Stations Pressure Air Temp Water Temp Dewpoint Dewpoint Depression Visibility Wind Speed Wind Dir Waves Ship Positions

Hafnia Lotte

Last reported at 2018-Feb-22 15:56 UTC. Time now 2018-Feb-23 06:27 UTC.
Position N 38°00' W 012°03'.

Length 183 m; draft 11.7 m.

Type: Tanker. MMSI: 249329000.

Date/timePositionNaut miles runAvg speedWind from/ knotsBaromVisibWave heightAir tempDewpointWater temp
2018-Feb-22 15:56N 38°00' W 012°03'  
2018-Feb-20 10:21N 48°18' W 006°18'6611.0
2018-Feb-20 04:18N 49°08' W 005°12'5 8.7
2018-Feb-20 03:46N 49°11' W 005°06'4 9.3
2018-Feb-20 03:23N 49°13' W 005°01'4 9.6
2018-Feb-20 02:59N 49°15' W 004°56'611.5
2018-Feb-20 02:30N 49°18' W 004°48'713.5
2018-Feb-20 01:59N 49°21' W 004°39'713.5
2018-Feb-20 01:30N 49°24' W 004°31'1613.7
2018-Feb-20 00:21N 49°32' W 004°10'713.4
2018-Feb-19 23:49N 49°36' W 004°00'1912.3
2018-Feb-19 22:16N 49°46' W 003°35'511.3
2018-Feb-19 21:48N 49°48' W 003°28'311.0
2018-Feb-19 21:30N 49°50' W 003°23'511.0
2018-Feb-19 21:00N 49°53' W 003°16'610.8
2018-Feb-19 20:29N 49°56' W 003°09'511.0
2018-Feb-19 20:00N 49°58' W 003°01'611.2
2018-Feb-19 19:30N 50°00' W 002°53'611.7
2018-Feb-19 19:00N 50°01' W 002°44'712.5
2018-Feb-19 18:29N 50°03' W 002°34'1213.8
2018-Feb-19 17:38N 50°06' W 002°17'314.9
2018-Feb-19 17:24N 50°07' W 002°12'615.6
2018-Feb-19 17:00N 50°09' W 002°02'816.1
2018-Feb-19 16:30N 50°11' W 001°50'816.2
2018-Feb-19 16:01N 50°13' W 001°38'816.0
2018-Feb-19 15:31N 50°15' W 001°26'1115.5
2018-Feb-19 14:49N 50°18' W 001°10'2812.9
2018-Feb-19 12:40N 50°24' W 000°28'211.3
2018-Feb-19 12:29N 50°25' W 000°25'611.1
2018-Feb-19 11:58N 50°26' W 000°16'510.6
2018-Feb-19 11:30N 50°28' W 000°08'510.3
2018-Feb-19 11:00N 50°29' W 000°01'510.3
2018-Feb-19 10:29N 50°31' E 000°07'510.5
2018-Feb-19 10:00N 50°32' E 000°15'511.0
2018-Feb-19 09:30N 50°34' E 000°23'611.9
2018-Feb-19 09:00N 50°36' E 000°32'612.4
2018-Feb-19 08:30N 50°39' E 000°40'713.3
2018-Feb-19 08:00N 50°43' E 000°49'713.8
2018-Feb-19 07:30N 50°47' E 000°58'713.8
2018-Feb-19 07:00N 50°51' E 001°06'713.5
2018-Feb-19 06:30N 50°56' E 001°14'713.0
2018-Feb-19 06:00N 51°01' E 001°21'612.3
2018-Feb-19 05:31N 51°05' E 001°28'611.3
2018-Feb-19 05:00N 51°08' E 001°36'510.7
2018-Feb-19 04:31N 51°12' E 001°42'510.3
2018-Feb-19 04:00N 51°15' E 001°48'510.2
2018-Feb-19 03:30N 51°20' E 001°52'510.1
2018-Feb-19 03:00N 51°24' E 001°57'5 9.9
2018-Feb-19 02:30N 51°24' E 002°04'612.1
2018-Feb-19 02:00N 51°22' E 002°13'510.7
2018-Feb-19 01:30N 51°21' E 002°22'611.3
2018-Feb-19 00:56N 51°23' E 002°32'511.5
2018-Feb-19 00:30N 51°23' E 002°40'510.2
2018-Feb-19 00:00N 51°25' E 002°47'611.7
2018-Feb-18 23:30N 51°25' E 002°57'612.2
2018-Feb-18 23:00N 51°24' E 003°06'612.1
2018-Feb-18 22:31N 51°25' E 003°16'611.9
2018-Feb-18 22:00N 51°25' E 003°26'612.0
2018-Feb-18 21:30N 51°26' E 003°35'5 9.6
2018-Feb-18 21:01N 51°25' E 003°43'612.0
2018-Feb-18 20:30N 51°21' E 003°50'611.9
2018-Feb-18 20:00N 51°24' E 003°57'3 6.4
2018-Feb-18 19:30N 51°24' E 004°02'510.6
2018-Feb-18 19:00N 51°24' E 004°11'5 9.4
2018-Feb-18 18:31N 51°21' E 004°17'0 0.9
2018-Feb-18 18:00N 51°21' E 004°17'0 0.0
2018-Feb-18 17:30N 51°21' E 004°17'0 0.0
2018-Feb-18 17:01N 51°21' E 004°17'1 1.0
2018-Feb-18 16:30N 51°20' E 004°18'3 6.5
2018-Feb-18 16:00N 51°18' E 004°20'1 1.7
2018-Feb-18 15:20N 51°16' E 004°21'0 0.0
2018-Feb-18 14:59N 51°16' E 004°21'0 0.0
2018-Feb-18 14:26N 51°16' E 004°21'0 0.0
2018-Feb-18 13:53N 51°16' E 004°21'0 0.0
2018-Feb-18 13:23N 51°16' E 004°21'0 0.0
2018-Feb-18 12:56N 51°16' E 004°21'0 0.0
2018-Feb-18 12:26N 51°16' E 004°21'0 0.0
2018-Feb-18 11:56N 51°16' E 004°21'0 0.0
2018-Feb-18 11:26N 51°16' E 004°21'0 0.0
2018-Feb-18 10:59N 51°16' E 004°21'0 0.0
2018-Feb-18 10:26N 51°16' E 004°21'0 0.0
2018-Feb-18 09:59N 51°16' E 004°21'0 0.0
2018-Feb-18 09:30N 51°16' E 004°21'0 0.0
2018-Feb-18 08:57N 51°16' E 004°21'0 0.0
2018-Feb-18 08:30N 51°16' E 004°21'0 0.0
2018-Feb-18 08:00N 51°16' E 004°21'0 0.0
2018-Feb-18 07:30N 51°16' E 004°21'0 0.0
2018-Feb-18 07:00N 51°16' E 004°21'0 0.0
2018-Feb-18 06:30N 51°16' E 004°21'0 0.0
2018-Feb-18 06:00N 51°16' E 004°21'0 0.0
2018-Feb-18 05:27N 51°16' E 004°21'0 0.0
2018-Feb-18 04:51N 51°16' E 004°21'0 0.0
2018-Feb-18 04:24N 51°16' E 004°21'0 0.0
2018-Feb-18 03:54N 51°16' E 004°21'0 0.0
2018-Feb-18 03:30N 51°16' E 004°21'0 0.0
2018-Feb-18 03:00N 51°16' E 004°21'0 0.0
2018-Feb-18 02:27N 51°16' E 004°21'0 0.0
2018-Feb-18 02:00N 51°16' E 004°21'0 0.0
2018-Feb-18 01:30N 51°16' E 004°21'0 0.0
2018-Feb-18 00:57N 51°16' E 004°21'0 0.0
2018-Feb-18 00:27N 51°16' E 004°21'0 0.0
2018-Feb-17 23:45N 51°16' E 004°21'0 0.0
2018-Feb-17 23:18N 51°16' E 004°21'0 0.0
2018-Feb-17 22:54N 51°16' E 004°21'0 0.0
2018-Feb-17 22:18N 51°16' E 004°21'0 0.0
2018-Feb-17 21:57N 51°16' E 004°21'0 0.0
2018-Feb-17 21:24N 51°16' E 004°21'0 0.0
2018-Feb-17 21:00N 51°16' E 004°21'0 0.0
2018-Feb-17 20:24N 51°16' E 004°21'0 0.0
2018-Feb-17 20:00N 51°16' E 004°21'0 0.0
2018-Feb-17 19:30N 51°16' E 004°21'0 0.0
2018-Feb-17 19:00N 51°16' E 004°21'0 0.0
2018-Feb-17 18:30N 51°16' E 004°21'0 0.0
2018-Feb-17 17:57N 51°16' E 004°21'0 0.0
2018-Feb-17 17:30N 51°16' E 004°21'0 0.0
2018-Feb-17 17:00N 51°16' E 004°21'0 0.0
2018-Feb-17 16:24N 51°16' E 004°21'0 0.0
2018-Feb-17 15:45N 51°16' E 004°21'0 0.0
2018-Feb-17 15:30N 51°16' E 004°21'0 0.0
2018-Feb-17 15:00N 51°16' E 004°21'0 0.0
2018-Feb-17 14:12N 51°16' E 004°21'0 0.0
2018-Feb-17 13:54N 51°16' E 004°21'0 0.0
2018-Feb-17 13:26N 51°16' E 004°21'0 0.0
2018-Feb-17 12:59N 51°16' E 004°21'0 0.0
2018-Feb-17 12:26N 51°16' E 004°21'0 0.0
2018-Feb-17 11:59N 51°16' E 004°21'0 0.0
2018-Feb-17 11:29N 51°16' E 004°21'0 0.0
2018-Feb-17 10:59N 51°16' E 004°21'0 0.0
2018-Feb-17 10:29N 51°16' E 004°21'0 0.0
2018-Feb-17 09:59N 51°16' E 004°21'0 0.0
2018-Feb-17 09:26N 51°16' E 004°21'0 0.0
2018-Feb-17 08:59N 51°16' E 004°21'0 0.0
2018-Feb-17 08:26N 51°16' E 004°21'0 0.0
2018-Feb-17 07:56N 51°16' E 004°21'0 0.0
2018-Feb-17 07:29N 51°16' E 004°21'0 0.0
2018-Feb-17 06:59N 51°16' E 004°21'0 0.0
2018-Feb-17 06:23N 51°16' E 004°21'0 0.0
2018-Feb-17 05:50N 51°16' E 004°21'0 0.0
2018-Feb-17 05:20N 51°16' E 004°21'0 0.0
2018-Feb-17 04:56N 51°16' E 004°21'0 0.0
2018-Feb-17 04:26N 51°16' E 004°21'0 0.0
2018-Feb-17 03:59N 51°16' E 004°21'0 0.0
2018-Feb-17 03:26N 51°16' E 004°21'0 0.0
2018-Feb-17 02:56N 51°16' E 004°21'0 0.0
2018-Feb-17 02:23N 51°16' E 004°21'0 0.0
2018-Feb-17 01:59N 51°16' E 004°21'0 0.0
2018-Feb-17 01:29N 51°16' E 004°21'0 0.0
2018-Feb-17 00:56N 51°16' E 004°21'0 0.0
2018-Feb-17 00:23N 51°16' E 004°21'0 0.0
2018-Feb-16 23:59N 51°16' E 004°21'0 0.0
2018-Feb-16 23:29N 51°16' E 004°21'0 0.0
2018-Feb-16 22:53N 51°16' E 004°21'0 0.0
2018-Feb-16 22:29N 51°16' E 004°21'0 0.0
2018-Feb-16 21:56N 51°16' E 004°21'0 0.0
2018-Feb-16 21:28N 51°16' E 004°21'0 0.0
2018-Feb-16 20:55N 51°16' E 004°21'0 0.0
2018-Feb-16 20:28N 51°16' E 004°21'0 0.0
2018-Feb-16 19:58N 51°16' E 004°21'0 0.0
2018-Feb-16 19:28N 51°16' E 004°21'0 0.0
2018-Feb-16 18:58N 51°16' E 004°21'0 0.0
2018-Feb-16 18:25N 51°16' E 004°21'0 0.0
2018-Feb-16 17:58N 51°16' E 004°21'0 0.0
2018-Feb-16 17:28N 51°16' E 004°21'0 0.0
2018-Feb-16 16:55N 51°16' E 004°21'0 0.0
2018-Feb-16 16:22N 51°16' E 004°21'0 0.0
2018-Feb-16 15:55N 51°16' E 004°21'0 0.0
2018-Feb-16 15:13N 51°16' E 004°21'0 0.0
2018-Feb-16 14:55N 51°16' E 004°21'0 0.0
2018-Feb-16 14:28N 51°16' E 004°21'0 0.0
2018-Feb-16 13:55N 51°16' E 004°21'0 0.0
2018-Feb-16 13:28N 51°16' E 004°21'0 0.0
2018-Feb-16 12:58N 51°16' E 004°21'0 0.0
2018-Feb-16 12:28N 51°16' E 004°21'0 0.0
2018-Feb-16 11:58N 51°16' E 004°21'0 0.0
2018-Feb-16 11:28N 51°16' E 004°21'0 0.0
2018-Feb-16 10:52N 51°16' E 004°21'0 0.0
2018-Feb-16 10:28N 51°16' E 004°21'0 0.0
2018-Feb-16 09:46N 51°16' E 004°21'0 0.0
2018-Feb-16 09:28N 51°16' E 004°21'0 0.0
2018-Feb-16 08:58N 51°16' E 004°21'0 0.0
2018-Feb-16 08:28N 51°16' E 004°21'0 0.0
2018-Feb-16 07:58N 51°16' E 004°21'0 0.0
2018-Feb-16 07:28N 51°16' E 004°21'0 0.0
2018-Feb-16 06:58N 51°16' E 004°21'0 0.0
2018-Feb-16 06:28N 51°16' E 004°21'0 0.0
2018-Feb-16 05:58N 51°16' E 004°21'0 0.0
2018-Feb-16 05:30N 51°16' E 004°21'0 0.0
2018-Feb-16 04:54N 51°16' E 004°21'0 0.0
2018-Feb-16 04:30N 51°16' E 004°21'0 0.0
2018-Feb-16 03:57N 51°16' E 004°21'0 0.0
2018-Feb-16 03:24N 51°16' E 004°21'0 0.0
2018-Feb-16 03:00N 51°16' E 004°21'0 0.0
2018-Feb-16 02:27N 51°16' E 004°21'0 0.0
2018-Feb-16 02:00N 51°16' E 004°21'0 0.0
2018-Feb-16 01:30N 51°16' E 004°21'0 0.0
2018-Feb-16 01:00N 51°16' E 004°21'0 0.0
2018-Feb-16 00:27N 51°16' E 004°21'0 0.0
2018-Feb-15 23:54N 51°16' E 004°21'0 0.0
2018-Feb-15 23:18N 51°16' E 004°21'0 0.0
2018-Feb-15 23:00N 51°16' E 004°21'0 0.0
2018-Feb-15 22:30N 51°16' E 004°21'0 0.0
2018-Feb-15 22:00N 51°16' E 004°21'0 0.0
2018-Feb-15 21:30N 51°16' E 004°21'0 0.0
2018-Feb-15 21:00N 51°16' E 004°21'0 0.0
2018-Feb-15 20:30N 51°16' E 004°21'0 0.0
2018-Feb-15 20:00N 51°16' E 004°21'0 0.0
2018-Feb-15 19:30N 51°16' E 004°21'0 0.0
2018-Feb-15 18:54N 51°16' E 004°21'0 0.0
2018-Feb-15 18:30N 51°16' E 004°21'0 0.0
2018-Feb-15 17:54N 51°16' E 004°21'0 0.0
2018-Feb-15 17:30N 51°16' E 004°21'0 0.0
2018-Feb-15 17:00N 51°16' E 004°21'0 0.0
2018-Feb-15 16:30N 51°16' E 004°21'0 0.0
2018-Feb-15 16:00N 51°16' E 004°21'0 0.0
2018-Feb-15 15:30N 51°16' E 004°21'0 0.0
2018-Feb-15 15:00N 51°16' E 004°21'0 0.0
2018-Feb-15 14:30N 51°16' E 004°21'0 0.0
2018-Feb-15 14:00N 51°16' E 004°21'0 0.0
2018-Feb-15 13:28N 51°16' E 004°21'0 0.0
2018-Feb-15 12:58N 51°16' E 004°21'0 0.0
2018-Feb-15 12:28N 51°16' E 004°21'0 0.0
2018-Feb-15 11:58N 51°16' E 004°21'0 0.0
2018-Feb-15 11:28N 51°16' E 004°21'0 0.0
2018-Feb-15 10:55N 51°16' E 004°21'0 0.0
2018-Feb-15 10:16N 51°16' E 004°21'0 0.0
2018-Feb-15 09:58N 51°16' E 004°21'0 0.0
2018-Feb-15 09:25N 51°16' E 004°21'0 0.0
2018-Feb-15 08:55N 51°16' E 004°21'0 0.0
2018-Feb-15 08:28N 51°16' E 004°21'0 0.0
2018-Feb-15 07:52N 51°16' E 004°21'0 0.0
2018-Feb-15 07:28N 51°16' E 004°21'0 0.0
2018-Feb-15 06:58N 51°16' E 004°21'0 0.0
2018-Feb-15 06:25N 51°16' E 004°21'0 0.0
2018-Feb-15 05:58N 51°16' E 004°21'0 0.0
2018-Feb-15 05:25N 51°16' E 004°21'0 0.0
2018-Feb-15 04:58N 51°16' E 004°21'0 0.0
2018-Feb-15 04:28N 51°16' E 004°21'0 0.0
2018-Feb-15 03:58N 51°16' E 004°21'0 0.0
2018-Feb-15 03:28N 51°16' E 004°21'0 0.0
2018-Feb-15 02:55N 51°16' E 004°21'0 0.0
2018-Feb-15 02:28N 51°16' E 004°21'0 0.0
2018-Feb-15 01:52N 51°16' E 004°21'0 0.0
2018-Feb-15 01:28N 51°16' E 004°21'0 0.0
2018-Feb-15 00:46N 51°16' E 004°21'0 0.0
2018-Feb-15 00:22N 51°16' E 004°21'0 0.0
2018-Feb-14 23:58N 51°16' E 004°21'0 0.0
2018-Feb-14 23:25N 51°16' E 004°21'0 0.0
2018-Feb-14 22:58N 51°16' E 004°21'0 0.0
2018-Feb-14 22:28N 51°16' E 004°21'0 0.0
2018-Feb-14 21:58N 51°16' E 004°21'0 0.0
2018-Feb-14 21:28N 51°16' E 004°21'0 0.0
2018-Feb-14 20:58N 51°16' E 004°21'0 0.0
2018-Feb-14 20:25N 51°16' E 004°21'0 0.0
2018-Feb-14 19:52N 51°16' E 004°21'0 0.0
2018-Feb-14 19:28N 51°16' E 004°21'0 0.0
2018-Feb-14 18:49N 51°16' E 004°21'0 0.0
2018-Feb-14 18:28N 51°16' E 004°21'0 0.0
2018-Feb-14 17:58N 51°16' E 004°21'0 0.0
2018-Feb-14 17:28N 51°16' E 004°21'0 0.0
2018-Feb-14 16:55N 51°16' E 004°21'0 0.0
2018-Feb-14 16:28N 51°16' E 004°21'0 0.0
2018-Feb-14 15:52N 51°16' E 004°21'0 0.0
2018-Feb-14 15:19N 51°16' E 004°21'0 0.0
2018-Feb-14 14:58N 51°16' E 004°21'0 0.0
2018-Feb-14 14:28N 51°16' E 004°21'0 0.0
2018-Feb-14 13:58N 51°16' E 004°21'0 0.0
2018-Feb-14 13:28N 51°16' E 004°21'0 0.0
2018-Feb-14 12:58N 51°16' E 004°21'0 0.0
2018-Feb-14 12:28N 51°16' E 004°21'0 0.0
2018-Feb-14 11:55N 51°16' E 004°21'0 0.0
2018-Feb-14 11:22N 51°16' E 004°21'0 0.0
2018-Feb-14 10:58N 51°16' E 004°21'0 0.0
2018-Feb-14 10:28N 51°16' E 004°21'0 0.0
2018-Feb-14 09:55N 51°16' E 004°21'0 0.0
2018-Feb-14 09:25N 51°16' E 004°21'0 0.0
2018-Feb-14 08:58N 51°16' E 004°21'0 0.0
2018-Feb-14 08:25N 51°16' E 004°21'0 0.0
2018-Feb-14 07:58N 51°16' E 004°21'0 0.0
2018-Feb-14 07:28N 51°16' E 004°21'0 0.0
2018-Feb-14 06:55N 51°16' E 004°21'0 0.0
2018-Feb-14 06:28N 51°16' E 004°21'0 0.0
2018-Feb-14 05:58N 51°16' E 004°21'0 0.0
2018-Feb-14 05:28N 51°16' E 004°21'0 0.0
2018-Feb-14 04:58N 51°16' E 004°21'0 0.0
2018-Feb-14 04:28N 51°16' E 004°21'0 0.0
2018-Feb-14 03:58N 51°16' E 004°21'0 0.0
2018-Feb-14 03:28N 51°16' E 004°21'0 0.0
2018-Feb-14 02:58N 51°16' E 004°21'0 0.0
2018-Feb-14 02:25N 51°16' E 004°21'0 0.0
2018-Feb-14 01:55N 51°16' E 004°21'0 0.0
2018-Feb-14 01:28N 51°16' E 004°21'0 0.0
2018-Feb-14 00:58N 51°16' E 004°21'0 0.0
2018-Feb-14 00:19N 51°16' E 004°21'0 0.0
2018-Feb-13 23:55N 51°16' E 004°21'0 0.0
2018-Feb-13 23:25N 51°16' E 004°21'0 0.0
2018-Feb-13 22:55N 51°16' E 004°21'0 0.0
2018-Feb-13 22:28N 51°16' E 004°21'0 0.0
2018-Feb-13 21:55N 51°16' E 004°21'0 0.0
2018-Feb-13 21:28N 51°16' E 004°21'0 0.0
2018-Feb-13 20:55N 51°16' E 004°21'0 0.0
2018-Feb-13 20:28N 51°16' E 004°21'0 0.0
2018-Feb-13 19:52N 51°16' E 004°21'0 0.0
2018-Feb-13 19:28N 51°16' E 004°21'0 0.0
2018-Feb-13 18:55N 51°16' E 004°21'0 0.0
2018-Feb-13 18:25N 51°16' E 004°21'0 0.0
2018-Feb-13 17:55N 51°16' E 004°21'0 0.0
2018-Feb-13 17:28N 51°16' E 004°21'0 0.0
2018-Feb-13 16:55N 51°16' E 004°21'0 0.0
2018-Feb-13 16:22N 51°16' E 004°21'0 0.0
2018-Feb-13 15:58N 51°16' E 004°21'0 0.0
2018-Feb-13 15:28N 51°16' E 004°21'0 0.0
2018-Feb-13 14:55N 51°16' E 004°21'0 0.0
2018-Feb-13 14:25N 51°16' E 004°21'0 0.0
2018-Feb-13 13:49N 51°16' E 004°21'0 0.0
2018-Feb-13 13:19N 51°16' E 004°21'0 0.0
2018-Feb-13 12:58N 51°16' E 004°21'0 0.0
2018-Feb-13 12:28N 51°16' E 004°21'0 0.0
2018-Feb-13 11:58N 51°16' E 004°21'0 0.0
2018-Feb-13 11:25N 51°16' E 004°21'0 0.0
2018-Feb-13 10:55N 51°16' E 004°21'0 0.0
2018-Feb-13 10:28N 51°16' E 004°21'0 0.0
2018-Feb-13 09:55N 51°16' E 004°21'0 0.0
2018-Feb-13 09:28N 51°16' E 004°21'0 0.0
2018-Feb-13 08:58N 51°16' E 004°21'0 0.0
2018-Feb-13 08:25N 51°16' E 004°21'0 0.0
2018-Feb-13 07:55N 51°16' E 004°21'0 0.0
2018-Feb-13 07:25N 51°16' E 004°21'0 0.0
2018-Feb-13 06:58N 51°16' E 004°21'0 0.0
2018-Feb-13 06:28N 51°16' E 004°21'0 0.0
2018-Feb-13 05:55N 51°16' E 004°21'0 0.0
2018-Feb-13 05:25N 51°16' E 004°21'0 0.0
2018-Feb-13 04:52N 51°16' E 004°21'0 0.0
2018-Feb-13 04:28N 51°16' E 004°21'0 0.0
2018-Feb-13 03:55N 51°16' E 004°21'0 0.0
2018-Feb-13 03:25N 51°16' E 004°21'0 0.0
2018-Feb-13 02:58N 51°16' E 004°21'0 0.0
2018-Feb-13 02:28N 51°16' E 004°21'0 0.0
2018-Feb-13 01:55N 51°16' E 004°21'0 0.0
2018-Feb-13 01:25N 51°16' E 004°21'0 0.0
2018-Feb-13 00:55N 51°16' E 004°21'0 0.0
2018-Feb-13 00:19N 51°16' E 004°21'0 0.0
2018-Feb-12 23:55N 51°16' E 004°21'0 0.0
2018-Feb-12 23:28N 51°16' E 004°21'0 0.0
2018-Feb-12 22:58N 51°16' E 004°21'0 0.1
2018-Feb-12 22:30N 51°16' E 004°21'2 3.9
2018-Feb-12 22:00N 51°18' E 004°19'3 5.7
2018-Feb-12 21:30N 51°21' E 004°17'0 0.0
2018-Feb-12 21:00N 51°21' E 004°17'0 0.0
2018-Feb-12 20:31N 51°21' E 004°17'1 1.2
2018-Feb-12 20:00N 51°21' E 004°16'3 6.8
2018-Feb-12 19:30N 51°23' E 004°13'510.1
2018-Feb-12 19:00N 51°22' E 004°05'510.4
2018-Feb-12 18:31N 51°26' E 003°59'611.6
2018-Feb-12 18:00N 51°21' E 003°54'510.7
2018-Feb-12 17:30N 51°22' E 003°45'510.5
2018-Feb-12 17:00N 51°26' E 003°40'5 8.8
2018-Feb-12 16:29N 51°25' E 003°33'510.5
2018-Feb-12 16:00N 51°24' E 003°25'  

Dump ship's entire track history